createdAt,value
2024-05-09T00:03:12.909Z,8.27
2024-05-09T00:07:14.499Z,8.55
2024-05-09T00:11:16.163Z,7.93
2024-05-09T00:15:17.703Z,9.43
2024-05-09T00:19:19.497Z,13.65
2024-05-09T00:23:21.119Z,9.02
2024-05-09T00:27:22.632Z,9.10
2024-05-09T00:31:24.994Z,11.82
2024-05-09T00:35:26.645Z,8.13
2024-05-09T00:39:28.195Z,10.35
2024-05-09T00:43:29.695Z,10.82
2024-05-09T00:47:31.470Z,11.82
2024-05-09T00:51:33.151Z,11.27
2024-05-09T00:55:36.880Z,16.15
2024-05-09T00:59:38.698Z,19.55
2024-05-09T01:03:40.435Z,15.25
2024-05-09T01:07:43.304Z,13.30
2024-05-09T01:11:44.943Z,7.30
2024-05-09T01:15:46.532Z,9.10
2024-05-09T01:19:48.172Z,10.93
2024-05-09T01:23:49.824Z,9.48
2024-05-09T01:27:51.463Z,12.75
2024-05-09T01:31:53.217Z,9.18
2024-05-09T01:35:54.874Z,10.35
2024-05-09T01:39:56.410Z,8.80
2024-05-09T01:43:58.079Z,14.13
2024-05-09T01:47:59.970Z,18.77
2024-05-09T01:52:01.961Z,13.13
2024-05-09T01:56:03.940Z,14.77
2024-05-09T02:00:07.723Z,9.10
2024-05-09T02:04:09.539Z,10.05
2024-05-09T02:08:18.839Z,12.40
2024-05-09T02:12:21.522Z,11.07
2024-05-09T02:16:23.112Z,16.70
2024-05-09T02:20:33.464Z,16.70
2024-05-09T02:24:37.900Z,13.85
2024-05-09T02:28:39.411Z,9.90
2024-05-09T02:32:41.060Z,13.95
2024-05-09T02:36:42.664Z,11.20
2024-05-09T02:40:44.222Z,16.85
2024-05-09T02:44:45.727Z,17.05
2024-05-09T02:48:47.331Z,13.13
2024-05-09T02:52:49.083Z,12.02
2024-05-09T02:56:50.705Z,8.70
2024-05-09T03:00:52.314Z,13.68
2024-05-09T03:04:53.987Z,10.75
2024-05-09T03:08:55.762Z,10.75
2024-05-09T03:12:57.264Z,12.48
2024-05-09T03:16:58.827Z,16.17
2024-05-09T03:21:00.605Z,10.90
2024-05-09T03:25:02.231Z,17.38
2024-05-09T03:29:03.832Z,8.25
2024-05-09T03:33:05.793Z,8.07
2024-05-09T03:37:07.636Z,11.88
2024-05-09T03:41:09.424Z,18.95
2024-05-09T03:45:10.946Z,18.00
2024-05-09T03:49:12.628Z,16.02
2024-05-09T03:53:14.700Z,22.77
2024-05-09T03:57:16.394Z,18.30
2024-05-09T04:01:17.928Z,12.30
2024-05-09T04:05:19.603Z,13.88
2024-05-09T04:09:21.132Z,14.82
2024-05-09T04:13:22.788Z,13.85
2024-05-09T04:17:24.376Z,14.48
2024-05-09T04:21:26.045Z,13.77
2024-05-09T04:25:27.520Z,17.52
2024-05-09T04:29:29.203Z,18.70
2024-05-09T04:33:30.974Z,12.10
2024-05-09T04:37:32.540Z,11.52
2024-05-09T04:41:34.145Z,20.45
2024-05-09T04:45:35.990Z,11.38
2024-05-09T04:49:37.669Z,16.05
2024-05-09T04:53:39.457Z,14.60
2024-05-09T04:57:41.046Z,15.23
2024-05-09T05:01:42.563Z,17.95
2024-05-09T05:05:45.460Z,13.75
2024-05-09T05:09:47.607Z,12.15
2024-05-09T05:13:49.127Z,12.93
2024-05-09T05:17:51.259Z,13.50
2024-05-09T05:21:52.868Z,10.23
2024-05-09T05:25:55.095Z,17.77
2024-05-09T05:29:57.244Z,14.43
2024-05-09T05:33:58.783Z,11.95
2024-05-09T05:38:00.485Z,11.35
2024-05-09T05:42:02.209Z,13.27
2024-05-09T05:46:03.786Z,16.00
2024-05-09T05:50:11.739Z,10.23
2024-05-09T05:54:19.346Z,11.80
2024-05-09T05:58:20.888Z,9.10
2024-05-09T06:02:22.583Z,13.15
2024-05-09T06:06:24.141Z,9.48
2024-05-09T06:10:30.275Z,10.35
2024-05-09T06:14:39.840Z,11.63
2024-05-09T06:18:41.548Z,8.60
2024-05-09T06:22:43.112Z,11.98
2024-05-09T06:26:44.643Z,10.18
2024-05-09T06:30:46.263Z,9.10
2024-05-09T06:34:48.276Z,11.13
2024-05-09T06:38:49.922Z,10.85
2024-05-09T06:42:51.418Z,9.13
2024-05-09T06:46:54.069Z,17.80
2024-05-09T06:50:56.541Z,7.03
2024-05-09T06:54:58.191Z,7.97
2024-05-09T06:58:59.747Z,9.20
2024-05-09T07:03:05.463Z,7.15
2024-05-09T07:07:07.651Z,6.85
2024-05-09T07:11:09.311Z,11.10
2024-05-09T07:15:10.870Z,8.90
2024-05-09T07:19:12.519Z,7.82
2024-05-09T07:23:14.694Z,7.47
2024-05-09T07:27:16.278Z,8.75
2024-05-09T07:31:17.807Z,8.05
2024-05-09T07:35:19.436Z,6.03
2024-05-09T07:39:20.925Z,8.77
2024-05-09T07:43:22.504Z,14.05
2024-05-09T07:48:56.500Z,7.60
2024-05-09T07:53:17.355Z,7.22
2024-05-09T07:56:08.382Z,7.93
2024-05-09T08:00:14.365Z,9.02
2024-05-09T08:04:16.080Z,14.85
2024-05-09T08:08:17.872Z,10.43
2024-05-09T08:12:19.368Z,6.25
2024-05-09T08:16:20.995Z,5.15
2024-05-09T08:20:30.549Z,6.88
2024-05-09T08:24:35.108Z,6.07
2024-05-09T08:28:36.647Z,5.63
2024-05-09T08:32:40.014Z,6.18
2024-05-09T08:36:41.593Z,6.63
2024-05-09T08:40:43.330Z,8.35
2024-05-09T08:44:48.244Z,5.22
2024-05-09T08:48:51.477Z,5.05
2024-05-09T08:52:53.091Z,6.63
2024-05-09T08:56:54.768Z,7.18
2024-05-09T09:00:58.114Z,7.03
2024-05-09T09:05:13.606Z,5.63
2024-05-09T09:09:15.557Z,5.57
2024-05-09T09:13:17.152Z,4.70
2024-05-09T09:17:18.836Z,7.22
2024-05-09T09:21:20.352Z,8.90
2024-05-09T09:25:22.516Z,4.22
2024-05-09T09:29:25.231Z,7.07
2024-05-09T09:33:26.836Z,5.50
2024-05-09T09:37:29.326Z,7.10
2024-05-09T09:41:31.502Z,7.68
2024-05-09T09:45:35.178Z,6.32
2024-05-09T09:49:37.698Z,6.63
2024-05-09T09:53:39.607Z,5.43
2024-05-09T09:57:43.758Z,6.78
2024-05-09T10:01:46.323Z,6.15
2024-05-09T10:05:49.154Z,6.32
2024-05-09T10:09:55.301Z,13.60
2024-05-09T10:13:57.547Z,5.22
2024-05-09T10:18:05.731Z,5.03
2024-05-09T10:22:07.754Z,9.00
2024-05-09T10:26:09.503Z,4.25
2024-05-09T10:30:29.586Z,5.00
2024-05-09T10:34:37.299Z,5.80
2024-05-09T10:38:40.764Z,6.15
2024-05-09T10:42:42.323Z,7.88
2024-05-09T10:46:46.860Z,5.50
2024-05-09T10:50:48.407Z,7.07
2024-05-09T10:54:53.409Z,4.45
2024-05-09T11:02:56.507Z,8.98
2024-05-09T11:07:01.023Z,4.40
2024-05-09T11:11:04.738Z,8.23
2024-05-09T11:15:06.746Z,8.55
2024-05-09T11:19:14.550Z,6.47
2024-05-09T11:23:18.013Z,5.78
2024-05-09T11:27:20.804Z,4.25
2024-05-09T11:31:22.564Z,7.57
2024-05-09T11:35:24.150Z,5.28
2024-05-09T11:39:26.335Z,4.80
2024-05-09T11:43:28.052Z,6.30
2024-05-09T11:47:29.878Z,7.30
2024-05-09T11:51:31.449Z,5.43
2024-05-09T11:55:33.140Z,8.45
2024-05-09T11:59:34.791Z,6.47
2024-05-09T12:03:36.391Z,7.90
2024-05-09T12:07:38.121Z,4.63
2024-05-09T12:11:39.712Z,8.45
2024-05-09T12:15:41.476Z,5.63
2024-05-09T12:19:43.066Z,5.45
2024-05-09T12:23:44.698Z,4.47
2024-05-09T12:27:46.328Z,5.38
2024-05-09T12:31:47.979Z,6.10
2024-05-09T12:35:51.207Z,7.60
2024-05-09T12:39:52.998Z,5.45
2024-05-09T12:43:54.657Z,4.78
2024-05-09T12:47:56.356Z,7.13
2024-05-09T12:51:58.079Z,5.55
2024-05-09T12:56:02.379Z,6.25
2024-05-09T13:00:09.355Z,7.93
2024-05-09T13:04:13.450Z,4.75
2024-05-09T13:08:15.490Z,5.00
2024-05-09T13:12:16.997Z,3.92
2024-05-09T13:16:18.730Z,3.78
2024-05-09T13:20:29.145Z,5.45
2024-05-09T13:24:34.524Z,7.70
2024-05-09T13:28:36.088Z,5.10
2024-05-09T13:32:37.806Z,4.32
2024-05-09T13:36:39.455Z,5.25
2024-05-09T13:40:41.103Z,3.55
2024-05-09T13:44:42.778Z,5.25
2024-05-09T13:48:44.495Z,4.50
2024-05-09T13:52:46.033Z,5.57
2024-05-09T13:56:47.571Z,3.92
2024-05-09T14:00:49.642Z,5.82
2024-05-09T14:04:51.514Z,5.65
2024-05-09T14:08:53.278Z,7.00
2024-05-09T14:12:54.887Z,5.68
2024-05-09T14:16:57.466Z,3.97
2024-05-09T14:20:59.128Z,4.18
2024-05-09T14:25:00.993Z,4.72
2024-05-09T14:29:03.448Z,5.20
2024-05-09T14:33:06.771Z,5.80
2024-05-09T14:37:09.371Z,6.53
2024-05-09T14:41:11.069Z,6.07
2024-05-09T14:45:12.694Z,3.80
2024-05-09T14:49:14.414Z,4.22
2024-05-09T14:53:16.065Z,3.13
2024-05-09T14:57:17.613Z,5.63
2024-05-09T15:01:19.274Z,4.00
2024-05-09T15:05:20.922Z,6.05
2024-05-09T15:09:22.624Z,5.20
2024-05-09T15:13:24.652Z,4.38
2024-05-09T15:17:26.654Z,5.00
2024-05-09T15:21:28.398Z,3.47
2024-05-09T15:25:30.023Z,3.53
2024-05-09T15:29:31.738Z,4.20
2024-05-09T15:33:33.441Z,5.55
2024-05-09T15:37:35.262Z,6.15
2024-05-09T15:41:36.778Z,3.80
2024-05-09T15:45:39.273Z,5.18
2024-05-09T15:49:41.254Z,4.65
2024-05-09T15:53:42.862Z,3.85
2024-05-09T15:57:45.031Z,4.68
2024-05-09T16:01:46.775Z,4.85
2024-05-09T16:05:48.791Z,4.18
2024-05-09T16:09:50.664Z,5.53
2024-05-09T16:13:52.251Z,6.00
2024-05-09T16:17:53.979Z,6.03
2024-05-09T16:21:55.599Z,4.97
2024-05-09T16:25:57.354Z,6.30
2024-05-09T16:29:58.883Z,5.85
2024-05-09T16:34:00.566Z,9.45
2024-05-09T16:38:03.304Z,6.35
2024-05-09T16:42:05.199Z,4.90
2024-05-09T16:46:07.269Z,5.25
2024-05-09T16:50:10.794Z,4.95
2024-05-09T16:54:14.328Z,5.68
2024-05-09T16:58:16.015Z,4.00
2024-05-09T17:02:17.996Z,7.93
2024-05-09T17:06:19.786Z,5.00
2024-05-09T17:10:29.134Z,6.65
2024-05-09T17:14:33.866Z,10.02
2024-05-09T17:18:35.904Z,6.03
2024-05-09T17:22:37.547Z,5.60
2024-05-09T17:26:39.106Z,21.95
2024-05-09T17:30:42.067Z,16.13
2024-05-09T17:34:44.372Z,5.78
2024-05-09T17:38:46.101Z,11.00
2024-05-09T17:42:47.643Z,22.38
2024-05-09T17:46:49.219Z,9.55
2024-05-09T17:50:50.759Z,18.27
2024-05-09T17:54:52.324Z,22.10
2024-05-09T17:58:53.990Z,8.70
2024-05-09T18:02:55.558Z,32.55
2024-05-09T18:06:57.170Z,9.00
2024-05-09T18:10:58.821Z,7.75
2024-05-09T18:15:00.524Z,5.70
2024-05-09T18:19:02.165Z,6.15
2024-05-09T18:23:03.907Z,7.40
2024-05-09T18:27:05.928Z,6.53
2024-05-09T18:31:07.493Z,5.15
2024-05-09T18:35:09.192Z,14.25
2024-05-09T18:39:11.138Z,6.07
2024-05-09T18:43:12.691Z,5.80
2024-05-09T18:47:16.746Z,7.13
2024-05-09T18:51:20.840Z,7.25
2024-05-09T18:55:22.452Z,9.90
2024-05-09T18:59:24.065Z,6.85
2024-05-09T19:03:25.963Z,7.78
2024-05-09T19:07:28.027Z,10.88
2024-05-09T19:11:30.821Z,10.98
2024-05-09T19:15:32.431Z,15.38
2024-05-09T19:19:34.401Z,10.85
2024-05-09T19:23:38.395Z,11.30
2024-05-09T19:27:44.533Z,15.43
2024-05-09T19:31:46.046Z,14.30
2024-05-09T19:35:47.692Z,12.30
2024-05-09T19:39:49.203Z,13.07
2024-05-09T19:43:50.774Z,17.30
2024-05-09T19:47:52.601Z,13.73
2024-05-09T19:51:54.333Z,15.70
2024-05-09T19:55:55.922Z,17.13
2024-05-09T19:59:57.497Z,13.40
2024-05-09T20:03:59.345Z,15.88
2024-05-09T20:08:01.082Z,15.00
2024-05-09T20:12:02.657Z,15.27
2024-05-09T20:16:04.622Z,13.82
2024-05-09T20:20:11.349Z,19.08
2024-05-09T20:24:18.176Z,18.60
2024-05-09T20:28:19.774Z,19.65
2024-05-09T20:32:21.456Z,15.95
2024-05-09T20:36:23.166Z,13.35
2024-05-09T20:40:29.321Z,16.42
2024-05-09T20:44:35.147Z,22.58
2024-05-09T20:48:36.912Z,24.35
2024-05-09T20:52:38.514Z,17.48
2024-05-09T20:56:40.031Z,15.52
2024-05-09T21:00:44.492Z,21.10
2024-05-09T21:04:47.665Z,19.27
2024-05-09T21:08:49.299Z,27.70
2024-05-09T21:12:51.303Z,23.02
2024-05-09T21:16:52.945Z,29.23
2024-05-09T21:20:54.510Z,32.75
2024-05-09T21:24:56.087Z,22.60
2024-05-09T21:28:57.689Z,21.95
2024-05-09T21:32:59.676Z,22.88
2024-05-09T21:37:01.416Z,16.38
2024-05-09T21:41:03.032Z,15.68
2024-05-09T21:45:04.887Z,15.63
2024-05-09T21:49:06.562Z,32.10
2024-05-09T21:53:08.359Z,21.42
2024-05-09T21:57:10.209Z,19.90
2024-05-09T22:01:11.876Z,13.65
2024-05-09T22:05:13.898Z,14.75
2024-05-09T22:09:15.539Z,21.98
2024-05-09T22:13:17.288Z,17.83
2024-05-09T22:17:18.937Z,17.10
2024-05-09T22:21:20.631Z,11.75
2024-05-09T22:25:22.876Z,13.10
2024-05-09T22:29:24.369Z,12.10
2024-05-09T22:33:25.959Z,15.00
2024-05-09T22:37:27.528Z,18.75
2024-05-09T22:41:29.013Z,15.43
2024-05-09T22:45:30.580Z,11.18
2024-05-09T22:49:32.120Z,14.38
2024-05-09T22:53:33.774Z,13.77
2024-05-09T22:57:35.414Z,13.45
2024-05-09T23:01:37.066Z,11.75
2024-05-09T23:05:38.754Z,9.25
2024-05-09T23:09:40.441Z,11.65
2024-05-09T23:13:42.017Z,11.57
2024-05-09T23:17:43.698Z,10.55
2024-05-09T23:21:45.291Z,11.38
2024-05-09T23:25:49.385Z,11.57
2024-05-09T23:29:51.396Z,15.00
2024-05-09T23:33:53.812Z,12.20
2024-05-09T23:37:55.986Z,10.10
2024-05-09T23:41:57.835Z,8.30
2024-05-09T23:45:59.643Z,10.43
2024-05-09T23:50:03.702Z,10.27
2024-05-09T23:54:05.759Z,7.50
2024-05-09T23:58:07.868Z,8.82
